createdAt,value
2023-04-29T00:04:17.127Z,9.06
2023-04-29T00:15:16.394Z,9.06
2023-04-29T00:26:10.909Z,9.06
2023-04-29T00:37:06.488Z,9.35
2023-04-29T00:47:48.027Z,9.16
2023-04-29T00:58:47.491Z,8.67
2023-04-29T01:09:48.845Z,8.28
2023-04-29T01:20:49.855Z,8.47
2023-04-29T01:31:52.165Z,8.37
2023-04-29T01:42:54.333Z,8.28
2023-04-29T01:53:30.853Z,8.28
2023-04-29T02:04:32.321Z,8.28
2023-04-29T02:15:27.058Z,8.08
2023-04-29T02:26:27.520Z,7.89
2023-04-29T02:37:28.732Z,7.59
2023-04-29T02:48:26.763Z,7.40
2023-04-29T02:59:26.818Z,7.20
2023-04-29T03:10:28.234Z,7.30
2023-04-29T03:21:30.064Z,7.50
2023-04-29T03:32:22.996Z,7.40
2023-04-29T03:43:20.201Z,7.40
2023-04-29T03:54:22.330Z,7.30
2023-04-29T04:05:25.050Z,7.20
2023-04-29T04:16:27.089Z,7.30
2023-04-29T04:27:28.853Z,7.30
2023-04-29T04:38:30.134Z,7.69
2023-04-29T04:49:32.651Z,7.98
2023-04-29T05:00:34.314Z,8.28
2023-04-29T05:11:30.858Z,8.77
2023-04-29T05:22:25.117Z,9.35
2023-04-29T05:33:21.912Z,9.94
2023-04-29T05:44:14.525Z,10.43
2023-04-29T05:55:14.609Z,11.02
2023-04-29T06:06:08.950Z,11.21
2023-04-29T06:17:04.890Z,11.70
2023-04-29T06:27:58.573Z,12.38
2023-04-29T06:38:54.433Z,12.68
2023-04-29T06:49:48.669Z,13.17
2023-04-29T07:00:27.868Z,13.85
2023-04-29T07:11:16.159Z,14.14
2023-04-29T07:22:16.256Z,14.54
2023-04-29T07:33:09.571Z,15.32
2023-04-29T07:44:08.555Z,14.83
2023-04-29T07:55:03.597Z,15.32
2023-04-29T08:05:56.870Z,16.20
2023-04-29T08:16:53.948Z,17.37
2023-04-29T08:27:49.290Z,17.08
2023-04-29T08:38:42.694Z,17.18
2023-04-29T08:49:36.461Z,17.37
2023-04-29T09:00:25.212Z,18.06
2023-04-29T09:11:09.756Z,18.84
2023-04-29T09:22:02.240Z,18.84
2023-04-29T09:32:47.590Z,18.74
2023-04-29T09:43:42.239Z,18.64
2023-04-29T09:54:16.231Z,19.43
2023-04-29T10:05:12.144Z,19.82
2023-04-29T10:16:00.961Z,20.50
2023-04-29T10:26:52.151Z,20.60
2023-04-29T10:37:50.884Z,21.29
2023-04-29T10:48:46.748Z,21.48
2023-04-29T10:59:32.648Z,20.11
2023-04-29T11:10:21.171Z,19.92
2023-04-29T11:21:15.414Z,22.56
2023-04-29T11:31:54.706Z,25.00
2023-04-29T11:42:47.808Z,25.78
2023-04-29T11:53:34.172Z,21.38
2023-04-29T12:04:26.017Z,21.77
2023-04-29T12:15:29.758Z,27.05
2023-04-29T12:26:26.821Z,28.03
2023-04-29T12:37:17.334Z,30.77
2023-04-29T12:48:22.068Z,31.55
2023-04-29T12:58:51.815Z,33.41
2023-04-29T13:09:32.046Z,25.68
2023-04-29T13:20:01.480Z,22.07
2023-04-29T13:30:53.584Z,20.99
2023-04-29T13:41:47.305Z,19.91
2023-04-29T13:53:23.445Z,18.84
2023-04-29T14:03:40.020Z,18.54
2023-04-29T14:14:34.130Z,18.35
2023-04-29T14:25:28.046Z,17.96
2023-04-29T14:36:23.867Z,17.86
2023-04-29T14:47:16.387Z,17.67
2023-04-29T14:58:08.258Z,21.67
2023-04-29T15:09:06.786Z,23.92
2023-04-29T15:20:00.993Z,25.49
2023-04-29T15:30:55.973Z,29.11
2023-04-29T15:41:53.303Z,27.64
2023-04-29T15:52:43.377Z,26.37
2023-04-29T16:03:22.758Z,21.09
2023-04-29T16:14:15.230Z,19.43
2023-04-29T16:25:07.293Z,18.74
2023-04-29T16:35:56.890Z,18.55
2023-04-29T16:46:52.046Z,18.45
2023-04-29T16:57:38.075Z,18.25
2023-04-29T17:08:28.337Z,17.96
2023-04-29T17:19:17.213Z,17.57
2023-04-29T17:29:55.920Z,17.47
2023-04-29T17:40:44.693Z,17.18
2023-04-29T17:51:20.589Z,17.18
2023-04-29T18:02:16.586Z,16.59
2023-04-29T18:13:12.417Z,15.71
2023-04-29T18:24:09.045Z,14.83
2023-04-29T18:34:54.064Z,14.15
2023-04-29T18:45:41.938Z,13.85
2023-04-29T18:56:30.526Z,13.17
2023-04-29T19:07:07.792Z,12.58
2023-04-29T19:17:53.626Z,12.29
2023-04-29T19:28:37.074Z,11.99
2023-04-29T19:39:30.193Z,11.80
2023-04-29T19:50:26.245Z,11.80
2023-04-29T20:01:21.089Z,12.38
2023-04-29T20:12:20.276Z,12.78
2023-04-29T20:23:18.841Z,13.26
2023-04-29T20:34:15.979Z,13.26
2023-04-29T20:45:05.807Z,12.58
2023-04-29T20:55:40.742Z,11.99
2023-04-29T21:06:26.003Z,11.70
2023-04-29T21:17:15.872Z,11.99
2023-04-29T21:28:05.870Z,12.09
2023-04-29T21:38:51.504Z,12.09
2023-04-29T21:49:39.912Z,11.31
2023-04-29T22:00:40.724Z,10.72
2023-04-29T22:11:39.891Z,10.43
2023-04-29T22:22:38.924Z,10.23
2023-04-29T22:33:36.250Z,9.84
2023-04-29T22:44:33.048Z,9.65
2023-04-29T22:55:32.890Z,9.25
2023-04-29T23:06:33.837Z,8.96
2023-04-29T23:17:34.140Z,8.77
2023-04-29T23:28:35.259Z,8.77
2023-04-29T23:39:35.554Z,8.86
2023-04-29T23:50:35.284Z,8.96
